Vinemont, Pennsylvania
Current Conditions -  °F | °C
As of 1:54 AM on Monday 24 Nov 2014 (Local Time) from KRDG Reporting Station
Light Rain Light Rain  
Wind Chill: 56°   Ceiling: 1100
Heat Index: 56°   Visibility: 8mi
Dew Point: 52°   Wind: 12mph
Humidity: 87%   Direction: 140°SE
Pressure: 29.72"   Gusts: 22mph
Location:  40.2731°N, 76.0902°W
Report Text: KRDG 240654Z AUTO 14010G19KT 8SM -RA BKN011 OVC017 13/11 A2972 RMK AO2 SLP069 P0008 T01330111
Loading
Personal Weather Stations






























Interactive Weather Map New forecast layout! Learn more

10-Day Weather Forecast

Advertisements
Track Severe Weather on mobile